sensor_id;sensor_type;location;lat;lon;timestamp;P1;durP1;ratioP1;P2;durP2;ratioP2
80270;SDS011;69573;45.560;10.200;2023-05-07T00:01:46;10.95;;;9.85;;
80270;SDS011;69573;45.560;10.200;2023-05-07T00:04:12;11.60;;;10.40;;
80270;SDS011;69573;45.560;10.200;2023-05-07T00:06:39;13.43;;;10.23;;
80270;SDS011;69573;45.560;10.200;2023-05-07T00:09:06;11.35;;;10.25;;
80270;SDS011;69573;45.560;10.200;2023-05-07T00:11:32;11.48;;;10.38;;
80270;SDS011;69573;45.560;10.200;2023-05-07T00:14:02;11.02;;;9.93;;
80270;SDS011;69573;45.560;10.200;2023-05-07T00:16:28;11.77;;;10.38;;
80270;SDS011;69573;45.560;10.200;2023-05-07T00:18:55;12.30;;;10.93;;
80270;SDS011;69573;45.560;10.200;2023-05-07T00:21:21;10.57;;;9.50;;
80270;SDS011;69573;45.560;10.200;2023-05-07T00:23:48;11.13;;;10.02;;
80270;SDS011;69573;45.560;10.200;2023-05-07T00:26:14;12.52;;;10.50;;
80270;SDS011;69573;45.560;10.200;2023-05-07T00:28:41;11.73;;;9.98;;
80270;SDS011;69573;45.560;10.200;2023-05-07T00:31:07;12.07;;;10.88;;
80270;SDS011;69573;45.560;10.200;2023-05-07T00:33:34;13.52;;;11.00;;
80270;SDS011;69573;45.560;10.200;2023-05-07T00:36:00;11.43;;;10.18;;
80270;SDS011;69573;45.560;10.200;2023-05-07T00:38:27;11.90;;;10.57;;
80270;SDS011;69573;45.560;10.200;2023-05-07T00:40:54;14.40;;;11.13;;
80270;SDS011;69573;45.560;10.200;2023-05-07T00:43:23;11.77;;;10.63;;
80270;SDS011;69573;45.560;10.200;2023-05-07T00:45:50;12.23;;;10.98;;
80270;SDS011;69573;45.560;10.200;2023-05-07T00:48:17;12.52;;;10.90;;
80270;SDS011;69573;45.560;10.200;2023-05-07T00:50:44;12.70;;;10.85;;
80270;SDS011;69573;45.560;10.200;2023-05-07T00:53:10;12.35;;;11.15;;
80270;SDS011;69573;45.560;10.200;2023-05-07T00:55:37;11.77;;;10.68;;
80270;SDS011;69573;45.560;10.200;2023-05-07T00:58:03;12.27;;;10.90;;
80270;SDS011;69573;45.560;10.200;2023-05-07T01:00:30;12.07;;;10.88;;
80270;SDS011;69573;45.560;10.200;2023-05-07T01:02:57;12.20;;;10.65;;
80270;SDS011;69573;45.560;10.200;2023-05-07T01:05:24;11.25;;;10.18;;
80270;SDS011;69573;45.560;10.200;2023-05-07T01:07:51;13.57;;;10.48;;
80270;SDS011;69573;45.560;10.200;2023-05-07T01:10:19;12.23;;;10.45;;
80270;SDS011;69573;45.560;10.200;2023-05-07T01:12:46;12.05;;;10.77;;
80270;SDS011;69573;45.560;10.200;2023-05-07T01:15:13;10.90;;;9.82;;
80270;SDS011;69573;45.560;10.200;2023-05-07T01:17:40;10.88;;;9.82;;
80270;SDS011;69573;45.560;10.200;2023-05-07T01:20:08;11.05;;;9.93;;
80270;SDS011;69573;45.560;10.200;2023-05-07T01:22:35;11.88;;;9.90;;
80270;SDS011;69573;45.560;10.200;2023-05-07T01:25:02;12.57;;;9.70;;
80270;SDS011;69573;45.560;10.200;2023-05-07T01:27:29;10.38;;;9.40;;
80270;SDS011;69573;45.560;10.200;2023-05-07T01:29:55;11.68;;;10.48;;
80270;SDS011;69573;45.560;10.200;2023-05-07T01:32:25;11.50;;;10.40;;
80270;SDS011;69573;45.560;10.200;2023-05-07T01:34:53;11.85;;;10.70;;
80270;SDS011;69573;45.560;10.200;2023-05-07T01:37:20;10.95;;;9.90;;
80270;SDS011;69573;45.560;10.200;2023-05-07T01:39:47;10.38;;;9.38;;
80270;SDS011;69573;45.560;10.200;2023-05-07T01:42:14;11.95;;;9.35;;
80270;SDS011;69573;45.560;10.200;2023-05-07T01:44:40;10.73;;;9.70;;
80270;SDS011;69573;45.560;10.200;2023-05-07T01:47:06;10.48;;;9.48;;
80270;SDS011;69573;45.560;10.200;2023-05-07T01:49:33;10.10;;;9.10;;
80270;SDS011;69573;45.560;10.200;2023-05-07T01:51:59;11.23;;;9.57;;
80270;SDS011;69573;45.560;10.200;2023-05-07T01:54:26;10.30;;;9.30;;
80270;SDS011;69573;45.560;10.200;2023-05-07T01:56:58;10.77;;;9.77;;
80270;SDS011;69573;45.560;10.200;2023-05-07T01:59:25;13.93;;;10.88;;
80270;SDS011;69573;45.560;10.200;2023-05-07T02:01:51;11.32;;;10.23;;
80270;SDS011;69573;45.560;10.200;2023-05-07T02:04:17;11.27;;;10.18;;
80270;SDS011;69573;45.560;10.200;2023-05-07T02:06:44;13.35;;;10.20;;
80270;SDS011;69573;45.560;10.200;2023-05-07T02:09:10;11.27;;;10.15;;
80270;SDS011;69573;45.560;10.200;2023-05-07T02:11:36;12.07;;;10.90;;
80270;SDS011;69573;45.560;10.200;2023-05-07T02:14:03;11.15;;;10.05;;
80270;SDS011;69573;45.560;10.200;2023-05-07T02:16:29;11.40;;;10.23;;
80270;SDS011;69573;45.560;10.200;2023-05-07T02:18:55;12.32;;;11.10;;
80270;SDS011;69573;45.560;10.200;2023-05-07T02:21:23;12.88;;;11.10;;
80270;SDS011;69573;45.560;10.200;2023-05-07T02:23:50;12.15;;;10.95;;
80270;SDS011;69573;45.560;10.200;2023-05-07T02:26:16;13.60;;;11.13;;
80270;SDS011;69573;45.560;10.200;2023-05-07T02:28:42;9.63;;;8.73;;
80270;SDS011;69573;45.560;10.200;2023-05-07T02:31:09;6.57;;;6.00;;
80270;SDS011;69573;45.560;10.200;2023-05-07T02:33:35;5.35;;;3.40;;
80270;SDS011;69573;45.560;10.200;2023-05-07T02:36:08;4.30;;;3.10;;
80270;SDS011;69573;45.560;10.200;2023-05-07T02:38:34;3.22;;;2.97;;
80270;SDS011;69573;45.560;10.200;2023-05-07T02:41:00;4.30;;;3.80;;
80270;SDS011;69573;45.560;10.200;2023-05-07T02:43:27;3.30;;;3.00;;
80270;SDS011;69573;45.560;10.200;2023-05-07T02:46:06;3.10;;;2.90;;
80270;SDS011;69573;45.560;10.200;2023-05-07T02:48:33;3.10;;;2.85;;
80270;SDS011;69573;45.560;10.200;2023-05-07T02:50:59;3.80;;;2.72;;
80270;SDS011;69573;45.560;10.200;2023-05-07T02:53:26;3.17;;;2.97;;
80270;SDS011;69573;45.560;10.200;2023-05-07T02:55:55;5.30;;;3.50;;
80270;SDS011;69573;45.560;10.200;2023-05-07T02:58:22;4.80;;;4.30;;
80270;SDS011;69573;45.560;10.200;2023-05-07T03:00:49;4.28;;;3.40;;
80270;SDS011;69573;45.560;10.200;2023-05-07T03:03:15;3.28;;;3.08;;
80270;SDS011;69573;45.560;10.200;2023-05-07T03:05:41;4.88;;;3.05;;
80270;SDS011;69573;45.560;10.200;2023-05-07T03:08:08;2.40;;;2.25;;
80270;SDS011;69573;45.560;10.200;2023-05-07T03:10:35;2.30;;;2.10;;
80270;SDS011;69573;45.560;10.200;2023-05-07T03:13:02;2.00;;;1.90;;
80270;SDS011;69573;45.560;10.200;2023-05-07T03:15:28;1.90;;;1.80;;
80270;SDS011;69573;45.560;10.200;2023-05-07T03:17:55;1.90;;;1.80;;
80270;SDS011;69573;45.560;10.200;2023-05-07T03:20:21;2.20;;;2.00;;
80270;SDS011;69573;45.560;10.200;2023-05-07T03:22:48;1.70;;;1.60;;
80270;SDS011;69573;45.560;10.200;2023-05-07T03:25:14;1.63;;;1.52;;
80270;SDS011;69573;45.560;10.200;2023-05-07T03:27:40;2.45;;;1.88;;
80270;SDS011;69573;45.560;10.200;2023-05-07T03:30:09;4.00;;;1.90;;
80270;SDS011;69573;45.560;10.200;2023-05-07T03:32:36;1.77;;;1.67;;
80270;SDS011;69573;45.560;10.200;2023-05-07T03:35:02;1.88;;;1.50;;
80270;SDS011;69573;45.560;10.200;2023-05-07T03:37:28;1.80;;;1.70;;
80270;SDS011;69573;45.560;10.200;2023-05-07T03:39:54;2.17;;;1.63;;
80270;SDS011;69573;45.560;10.200;2023-05-07T03:42:20;1.92;;;1.50;;
80270;SDS011;69573;45.560;10.200;2023-05-07T03:44:47;1.95;;;1.50;;
80270;SDS011;69573;45.560;10.200;2023-05-07T03:47:13;1.60;;;1.50;;
80270;SDS011;69573;45.560;10.200;2023-05-07T03:49:40;1.52;;;1.40;;
80270;SDS011;69573;45.560;10.200;2023-05-07T03:52:06;1.60;;;1.50;;
80270;SDS011;69573;45.560;10.200;2023-05-07T03:54:33;1.38;;;1.30;;
80270;SDS011;69573;45.560;10.200;2023-05-07T03:56:59;1.67;;;1.58;;
80270;SDS011;69573;45.560;10.200;2023-05-07T03:59:26;1.55;;;1.45;;
80270;SDS011;69573;45.560;10.200;2023-05-07T04:01:52;1.52;;;1.40;;
80270;SDS011;69573;45.560;10.200;2023-05-07T04:04:18;1.83;;;1.17;;
80270;SDS011;69573;45.560;10.200;2023-05-07T04:06:45;1.42;;;1.35;;
80270;SDS011;69573;45.560;10.200;2023-05-07T04:09:11;1.33;;;1.23;;
80270;SDS011;69573;45.560;10.200;2023-05-07T04:11:37;1.88;;;1.60;;
80270;SDS011;69573;45.560;10.200;2023-05-07T04:14:05;1.58;;;1.40;;
80270;SDS011;69573;45.560;10.200;2023-05-07T04:16:34;1.85;;;1.65;;
80270;SDS011;69573;45.560;10.200;2023-05-07T04:19:01;2.65;;;1.83;;
80270;SDS011;69573;45.560;10.200;2023-05-07T04:21:27;2.83;;;1.63;;
80270;SDS011;69573;45.560;10.200;2023-05-07T04:23:53;1.60;;;1.50;;
80270;SDS011;69573;45.560;10.200;2023-05-07T04:26:20;2.22;;;1.50;;
80270;SDS011;69573;45.560;10.200;2023-05-07T04:28:46;1.38;;;1.38;;
80270;SDS011;69573;45.560;10.200;2023-05-07T04:31:12;1.52;;;1.42;;
80270;SDS011;69573;45.560;10.200;2023-05-07T04:33:39;1.05;;;1.05;;
80270;SDS011;69573;45.560;10.200;2023-05-07T04:36:05;3.63;;;1.50;;
80270;SDS011;69573;45.560;10.200;2023-05-07T04:38:32;1.27;;;1.17;;
80270;SDS011;69573;45.560;10.200;2023-05-07T04:41:05;2.38;;;1.50;;
80270;SDS011;69573;45.560;10.200;2023-05-07T04:43:31;1.35;;;1.25;;
80270;SDS011;69573;45.560;10.200;2023-05-07T04:45:57;1.30;;;1.20;;
80270;SDS011;69573;45.560;10.200;2023-05-07T04:48:23;1.33;;;1.23;;
80270;SDS011;69573;45.560;10.200;2023-05-07T04:50:50;1.60;;;1.50;;
80270;SDS011;69573;45.560;10.200;2023-05-07T04:53:16;1.35;;;1.25;;
80270;SDS011;69573;45.560;10.200;2023-05-07T04:55:43;1.80;;;1.70;;
80270;SDS011;69573;45.560;10.200;2023-05-07T04:58:10;1.60;;;1.50;;
80270;SDS011;69573;45.560;10.200;2023-05-07T05:00:36;1.70;;;1.60;;
80270;SDS011;69573;45.560;10.200;2023-05-07T05:03:03;1.50;;;1.40;;
80270;SDS011;69573;45.560;10.200;2023-05-07T05:05:30;2.75;;;1.50;;
80270;SDS011;69573;45.560;10.200;2023-05-07T05:07:56;2.35;;;1.50;;
80270;SDS011;69573;45.560;10.200;2023-05-07T05:10:23;1.98;;;1.77;;
80270;SDS011;69573;45.560;10.200;2023-05-07T05:12:49;1.30;;;1.30;;
80270;SDS011;69573;45.560;10.200;2023-05-07T05:15:15;1.30;;;1.30;;
80270;SDS011;69573;45.560;10.200;2023-05-07T05:17:42;1.50;;;1.40;;
80270;SDS011;69573;45.560;10.200;2023-05-07T05:20:08;1.80;;;1.58;;
80270;SDS011;69573;45.560;10.200;2023-05-07T05:22:36;1.50;;;1.40;;
80270;SDS011;69573;45.560;10.200;2023-05-07T05:25:03;1.42;;;1.40;;
80270;SDS011;69573;45.560;10.200;2023-05-07T05:27:29;1.50;;;1.40;;
80270;SDS011;69573;45.560;10.200;2023-05-07T05:29:56;1.30;;;1.30;;
80270;SDS011;69573;45.560;10.200;2023-05-07T05:32:22;1.83;;;1.40;;
80270;SDS011;69573;45.560;10.200;2023-05-07T05:34:48;2.35;;;1.50;;
80270;SDS011;69573;45.560;10.200;2023-05-07T05:37:14;1.60;;;1.50;;
80270;SDS011;69573;45.560;10.200;2023-05-07T05:39:41;1.40;;;1.30;;
80270;SDS011;69573;45.560;10.200;2023-05-07T05:42:07;1.80;;;1.40;;
80270;SDS011;69573;45.560;10.200;2023-05-07T05:44:34;2.78;;;1.50;;
80270;SDS011;69573;45.560;10.200;2023-05-07T05:47:00;3.97;;;1.35;;
80270;SDS011;69573;45.560;10.200;2023-05-07T05:49:26;1.67;;;1.48;;
80270;SDS011;69573;45.560;10.200;2023-05-07T05:51:52;1.77;;;1.60;;
80270;SDS011;69573;45.560;10.200;2023-05-07T05:54:21;1.63;;;1.48;;
80270;SDS011;69573;45.560;10.200;2023-05-07T05:56:47;1.67;;;1.40;;
80270;SDS011;69573;45.560;10.200;2023-05-07T05:59:14;1.45;;;1.35;;
80270;SDS011;69573;45.560;10.200;2023-05-07T06:01:41;1.30;;;1.20;;
80270;SDS011;69573;45.560;10.200;2023-05-07T06:04:07;1.33;;;1.23;;
80270;SDS011;69573;45.560;10.200;2023-05-07T06:06:33;1.50;;;1.10;;
80270;SDS011;69573;45.560;10.200;2023-05-07T06:09:00;1.10;;;1.10;;
80270;SDS011;69573;45.560;10.200;2023-05-07T06:11:26;1.30;;;1.20;;
80270;SDS011;69573;45.560;10.200;2023-05-07T06:13:52;1.50;;;1.20;;
80270;SDS011;69573;45.560;10.200;2023-05-07T06:16:19;1.42;;;1.27;;
80270;SDS011;69573;45.560;10.200;2023-05-07T06:18:45;1.70;;;1.60;;
80270;SDS011;69573;45.560;10.200;2023-05-07T06:21:13;1.35;;;1.25;;
80270;SDS011;69573;45.560;10.200;2023-05-07T06:23:40;1.52;;;1.42;;
80270;SDS011;69573;45.560;10.200;2023-05-07T06:26:06;1.60;;;1.50;;
80270;SDS011;69573;45.560;10.200;2023-05-07T06:28:32;1.50;;;1.40;;
80270;SDS011;69573;45.560;10.200;2023-05-07T06:31:12;1.60;;;1.50;;
80270;SDS011;69573;45.560;10.200;2023-05-07T06:33:38;2.05;;;1.90;;
80270;SDS011;69573;45.560;10.200;2023-05-07T06:36:05;3.03;;;1.90;;
80270;SDS011;69573;45.560;10.200;2023-05-07T06:38:32;1.73;;;1.63;;
80270;SDS011;69573;45.560;10.200;2023-05-07T06:40:58;2.13;;;1.95;;
80270;SDS011;69573;45.560;10.200;2023-05-07T06:43:25;1.48;;;1.38;;
80270;SDS011;69573;45.560;10.200;2023-05-07T06:45:51;2.55;;;2.03;;
80270;SDS011;69573;45.560;10.200;2023-05-07T06:48:18;2.35;;;1.70;;
80270;SDS011;69573;45.560;10.200;2023-05-07T06:50:44;1.77;;;1.67;;
80270;SDS011;69573;45.560;10.200;2023-05-07T06:53:11;1.65;;;1.55;;
80270;SDS011;69573;45.560;10.200;2023-05-07T06:55:38;1.67;;;1.50;;
80270;SDS011;69573;45.560;10.200;2023-05-07T06:58:04;1.25;;;1.20;;
80270;SDS011;69573;45.560;10.200;2023-05-07T07:00:31;2.75;;;1.60;;
80270;SDS011;69573;45.560;10.200;2023-05-07T07:02:57;1.50;;;1.40;;
80270;SDS011;69573;45.560;10.200;2023-05-07T07:05:24;1.92;;;1.83;;
80270;SDS011;69573;45.560;10.200;2023-05-07T07:07:50;2.10;;;1.90;;
80270;SDS011;69573;45.560;10.200;2023-05-07T07:10:20;1.73;;;1.63;;
80270;SDS011;69573;45.560;10.200;2023-05-07T07:12:47;3.10;;;1.65;;
80270;SDS011;69573;45.560;10.200;2023-05-07T07:15:14;2.97;;;1.80;;
80270;SDS011;69573;45.560;10.200;2023-05-07T07:17:40;2.33;;;2.00;;
80270;SDS011;69573;45.560;10.200;2023-05-07T07:20:07;3.75;;;1.65;;
80270;SDS011;69573;45.560;10.200;2023-05-07T07:22:33;3.65;;;1.77;;
80270;SDS011;69573;45.560;10.200;2023-05-07T07:24:59;1.30;;;1.20;;
80270;SDS011;69573;45.560;10.200;2023-05-07T07:27:26;2.20;;;2.10;;
80270;SDS011;69573;45.560;10.200;2023-05-07T07:29:52;1.40;;;1.30;;
80270;SDS011;69573;45.560;10.200;2023-05-07T07:32:19;3.42;;;1.95;;
80270;SDS011;69573;45.560;10.200;2023-05-07T07:34:46;1.40;;;1.30;;
80270;SDS011;69573;45.560;10.200;2023-05-07T07:37:12;1.70;;;1.60;;
80270;SDS011;69573;45.560;10.200;2023-05-07T07:39:38;1.70;;;1.60;;
80270;SDS011;69573;45.560;10.200;2023-05-07T07:42:04;1.80;;;1.70;;
80270;SDS011;69573;45.560;10.200;2023-05-07T07:44:30;4.80;;;3.70;;
80270;SDS011;69573;45.560;10.200;2023-05-07T07:46:57;3.85;;;3.35;;
80270;SDS011;69573;45.560;10.200;2023-05-07T07:49:23;4.38;;;3.67;;
80270;SDS011;69573;45.560;10.200;2023-05-07T07:51:50;7.82;;;4.72;;
80270;SDS011;69573;45.560;10.200;2023-05-07T07:54:17;5.75;;;5.25;;
80270;SDS011;69573;45.560;10.200;2023-05-07T07:56:43;5.78;;;5.20;;
80270;SDS011;69573;45.560;10.200;2023-05-07T07:59:12;5.07;;;4.68;;
80270;SDS011;69573;45.560;10.200;2023-05-07T08:01:42;6.13;;;4.88;;
80270;SDS011;69573;45.560;10.200;2023-05-07T08:04:09;6.63;;;5.30;;
80270;SDS011;69573;45.560;10.200;2023-05-07T08:06:35;8.55;;;5.40;;
80270;SDS011;69573;45.560;10.200;2023-05-07T08:09:01;5.97;;;5.35;;
80270;SDS011;69573;45.560;10.200;2023-05-07T08:11:27;5.90;;;4.68;;
80270;SDS011;69573;45.560;10.200;2023-05-07T08:13:54;5.90;;;5.38;;
80270;SDS011;69573;45.560;10.200;2023-05-07T08:16:21;9.45;;;8.55;;
80270;SDS011;69573;45.560;10.200;2023-05-07T08:18:47;12.05;;;8.85;;
80270;SDS011;69573;45.560;10.200;2023-05-07T08:21:14;9.30;;;7.97;;
80270;SDS011;69573;45.560;10.200;2023-05-07T08:23:40;10.13;;;8.85;;
80270;SDS011;69573;45.560;10.200;2023-05-07T08:26:07;11.10;;;8.40;;
80270;SDS011;69573;45.560;10.200;2023-05-07T08:28:36;11.70;;;8.38;;
80270;SDS011;69573;45.560;10.200;2023-05-07T08:31:03;9.00;;;8.10;;
80270;SDS011;69573;45.560;10.200;2023-05-07T08:33:29;11.25;;;8.05;;
80270;SDS011;69573;45.560;10.200;2023-05-07T08:35:55;10.93;;;8.65;;
80270;SDS011;69573;45.560;10.200;2023-05-07T08:38:22;10.60;;;8.85;;
80270;SDS011;69573;45.560;10.200;2023-05-07T08:40:48;10.88;;;9.25;;
80270;SDS011;69573;45.560;10.200;2023-05-07T08:43:15;12.23;;;9.95;;
80270;SDS011;69573;45.560;10.200;2023-05-07T08:45:42;10.25;;;9.15;;
80270;SDS011;69573;45.560;10.200;2023-05-07T08:48:17;10.50;;;9.35;;
80270;SDS011;69573;45.560;10.200;2023-05-07T08:50:43;9.20;;;8.30;;
80270;SDS011;69573;45.560;10.200;2023-05-07T08:53:09;8.55;;;7.57;;
80270;SDS011;69573;45.560;10.200;2023-05-07T08:55:36;8.70;;;7.38;;
80270;SDS011;69573;45.560;10.200;2023-05-07T08:58:02;10.55;;;8.32;;
80270;SDS011;69573;45.560;10.200;2023-05-07T09:00:31;10.07;;;9.07;;
80270;SDS011;69573;45.560;10.200;2023-05-07T09:05:24;10.40;;;9.38;;
80270;SDS011;69573;45.560;10.200;2023-05-07T09:07:50;12.02;;;10.82;;
80270;SDS011;69573;45.560;10.200;2023-05-07T09:10:17;12.48;;;10.55;;
80270;SDS011;69573;45.560;10.200;2023-05-07T09:12:43;9.90;;;9.00;;
80270;SDS011;69573;45.560;10.200;2023-05-07T09:15:09;10.68;;;9.57;;
80270;SDS011;69573;45.560;10.200;2023-05-07T09:17:35;10.27;;;9.20;;
80270;SDS011;69573;45.560;10.200;2023-05-07T09:20:03;11.40;;;9.85;;
80270;SDS011;69573;45.560;10.200;2023-05-07T09:22:31;11.55;;;10.45;;
80270;SDS011;69573;45.560;10.200;2023-05-07T09:24:57;11.00;;;10.00;;
80270;SDS011;69573;45.560;10.200;2023-05-07T09:27:24;11.82;;;10.73;;
80270;SDS011;69573;45.560;10.200;2023-05-07T09:29:51;12.20;;;10.45;;
80270;SDS011;69573;45.560;10.200;2023-05-07T09:32:18;13.75;;;9.65;;
80270;SDS011;69573;45.560;10.200;2023-05-07T09:34:44;11.65;;;9.70;;
80270;SDS011;69573;45.560;10.200;2023-05-07T09:37:13;29.42;;;9.60;;
80270;SDS011;69573;45.560;10.200;2023-05-07T09:39:43;10.27;;;9.20;;
80270;SDS011;69573;45.560;10.200;2023-05-07T09:42:09;11.60;;;10.38;;
80270;SDS011;69573;45.560;10.200;2023-05-07T09:44:36;11.35;;;10.13;;
80270;SDS011;69573;45.560;10.200;2023-05-07T09:47:05;12.68;;;9.88;;
80270;SDS011;69573;45.560;10.200;2023-05-07T09:49:33;10.65;;;9.65;;
80270;SDS011;69573;45.560;10.200;2023-05-07T09:52:00;10.98;;;9.95;;
80270;SDS011;69573;45.560;10.200;2023-05-07T09:54:31;10.70;;;9.65;;
80270;SDS011;69573;45.560;10.200;2023-05-07T09:56:58;10.30;;;9.40;;
80270;SDS011;69573;45.560;10.200;2023-05-07T09:59:27;11.18;;;8.73;;
80270;SDS011;69573;45.560;10.200;2023-05-07T10:01:54;12.88;;;9.35;;
80270;SDS011;69573;45.560;10.200;2023-05-07T10:04:24;10.18;;;9.25;;
80270;SDS011;69573;45.560;10.200;2023-05-07T10:06:51;180.57;;;22.88;;
80270;SDS011;69573;45.560;10.200;2023-05-07T10:09:18;57.97;;;14.30;;
80270;SDS011;69573;45.560;10.200;2023-05-07T10:11:45;12.07;;;9.15;;
80270;SDS011;69573;45.560;10.200;2023-05-07T10:14:12;12.80;;;10.13;;
80270;SDS011;69573;45.560;10.200;2023-05-07T10:16:38;11.23;;;10.15;;
80270;SDS011;69573;45.560;10.200;2023-05-07T10:19:05;12.13;;;10.75;;
80270;SDS011;69573;45.560;10.200;2023-05-07T10:21:39;11.30;;;9.90;;
80270;SDS011;69573;45.560;10.200;2023-05-07T10:24:08;48.05;;;13.57;;
80270;SDS011;69573;45.560;10.200;2023-05-07T10:26:42;13.93;;;9.85;;
80270;SDS011;69573;45.560;10.200;2023-05-07T10:29:12;79.82;;;13.40;;
80270;SDS011;69573;45.560;10.200;2023-05-07T10:34:13;11.73;;;10.35;;
80270;SDS011;69573;45.560;10.200;2023-05-07T10:39:08;9.65;;;8.65;;
80270;SDS011;69573;45.560;10.200;2023-05-07T10:41:34;10.50;;;9.38;;
80270;SDS011;69573;45.560;10.200;2023-05-07T10:44:00;12.43;;;10.10;;
80270;SDS011;69573;45.560;10.200;2023-05-07T10:46:27;10.52;;;9.15;;
80270;SDS011;69573;45.560;10.200;2023-05-07T10:51:30;10.48;;;9.48;;
80270;SDS011;69573;45.560;10.200;2023-05-07T10:56:36;9.98;;;8.98;;
80270;SDS011;69573;45.560;10.200;2023-05-07T11:02:10;9.52;;;8.63;;
80270;SDS011;69573;45.560;10.200;2023-05-07T11:04:39;10.50;;;9.13;;
80270;SDS011;69573;45.560;10.200;2023-05-07T11:15:12;8.98;;;8.02;;
80270;SDS011;69573;45.560;10.200;2023-05-07T11:17:56;8.60;;;7.80;;
80270;SDS011;69573;45.560;10.200;2023-05-07T11:23:12;10.63;;;9.07;;
80270;SDS011;69573;45.560;10.200;2023-05-07T11:26:08;9.50;;;8.50;;
80270;SDS011;69573;45.560;10.200;2023-05-07T11:28:38;8.10;;;7.40;;
80270;SDS011;69573;45.560;10.200;2023-05-07T11:31:06;7.47;;;6.78;;
80270;SDS011;69573;45.560;10.200;2023-05-07T11:33:32;8.40;;;7.15;;
80270;SDS011;69573;45.560;10.200;2023-05-07T11:35:59;8.23;;;7.47;;
80270;SDS011;69573;45.560;10.200;2023-05-07T11:38:25;7.20;;;6.50;;
80270;SDS011;69573;45.560;10.200;2023-05-07T11:40:52;6.97;;;6.38;;
80270;SDS011;69573;45.560;10.200;2023-05-07T11:43:19;6.57;;;6.00;;
80270;SDS011;69573;45.560;10.200;2023-05-07T11:45:45;6.50;;;6.00;;
80270;SDS011;69573;45.560;10.200;2023-05-07T11:48:12;6.25;;;5.65;;
80270;SDS011;69573;45.560;10.200;2023-05-07T11:50:52;5.47;;;5.07;;
80270;SDS011;69573;45.560;10.200;2023-05-07T11:53:24;9.30;;;6.43;;
80270;SDS011;69573;45.560;10.200;2023-05-07T11:55:57;9.50;;;7.10;;
80270;SDS011;69573;45.560;10.200;2023-05-07T11:58:24;7.82;;;6.85;;
80270;SDS011;69573;45.560;10.200;2023-05-07T12:00:51;7.00;;;5.72;;
80270;SDS011;69573;45.560;10.200;2023-05-07T12:03:18;6.15;;;5.55;;
80270;SDS011;69573;45.560;10.200;2023-05-07T12:05:47;6.75;;;6.15;;
80270;SDS011;69573;45.560;10.200;2023-05-07T12:08:14;6.35;;;5.75;;
80270;SDS011;69573;45.560;10.200;2023-05-07T12:10:44;5.07;;;4.57;;
80270;SDS011;69573;45.560;10.200;2023-05-07T12:13:29;6.18;;;5.63;;
80270;SDS011;69573;45.560;10.200;2023-05-07T12:15:55;6.80;;;6.20;;
80270;SDS011;69573;45.560;10.200;2023-05-07T12:18:22;6.10;;;5.60;;
80270;SDS011;69573;45.560;10.200;2023-05-07T12:20:49;6.63;;;6.03;;
80270;SDS011;69573;45.560;10.200;2023-05-07T12:23:15;8.35;;;7.53;;
80270;SDS011;69573;45.560;10.200;2023-05-07T12:25:43;6.88;;;6.32;;
80270;SDS011;69573;45.560;10.200;2023-05-07T12:28:13;6.63;;;6.03;;
80270;SDS011;69573;45.560;10.200;2023-05-07T12:30:59;5.82;;;4.75;;
80270;SDS011;69573;45.560;10.200;2023-05-07T12:33:25;6.70;;;6.07;;
80270;SDS011;69573;45.560;10.200;2023-05-07T12:35:54;6.15;;;5.55;;
80270;SDS011;69573;45.560;10.200;2023-05-07T12:38:20;5.85;;;5.28;;
80270;SDS011;69573;45.560;10.200;2023-05-07T12:40:47;6.18;;;5.68;;
80270;SDS011;69573;45.560;10.200;2023-05-07T12:48:11;5.13;;;4.65;;
80270;SDS011;69573;45.560;10.200;2023-05-07T12:50:38;4.95;;;4.45;;
80270;SDS011;69573;45.560;10.200;2023-05-07T12:53:11;5.45;;;4.30;;
80270;SDS011;69573;45.560;10.200;2023-05-07T13:00:36;4.22;;;3.90;;
80270;SDS011;69573;45.560;10.200;2023-05-07T13:03:03;4.25;;;3.88;;
80270;SDS011;69573;45.560;10.200;2023-05-07T13:05:29;5.25;;;4.60;;
80270;SDS011;69573;45.560;10.200;2023-05-07T13:07:56;4.28;;;3.50;;
80270;SDS011;69573;45.560;10.200;2023-05-07T13:10:22;3.78;;;3.40;;
80270;SDS011;69573;45.560;10.200;2023-05-07T13:12:49;3.80;;;3.50;;
80270;SDS011;69573;45.560;10.200;2023-05-07T13:15:15;3.63;;;3.15;;
80270;SDS011;69573;45.560;10.200;2023-05-07T13:17:42;2.72;;;2.47;;
80270;SDS011;69573;45.560;10.200;2023-05-07T13:20:09;3.58;;;3.20;;
80270;SDS011;69573;45.560;10.200;2023-05-07T13:22:35;3.38;;;3.17;;
80270;SDS011;69573;45.560;10.200;2023-05-07T13:25:02;4.72;;;3.28;;
80270;SDS011;69573;45.560;10.200;2023-05-07T13:27:28;4.22;;;3.90;;
80270;SDS011;69573;45.560;10.200;2023-05-07T13:29:55;4.32;;;3.92;;
80270;SDS011;69573;45.560;10.200;2023-05-07T13:32:22;4.75;;;3.60;;
80270;SDS011;69573;45.560;10.200;2023-05-07T13:34:48;4.53;;;3.92;;
80270;SDS011;69573;45.560;10.200;2023-05-07T13:37:15;3.15;;;2.95;;
80270;SDS011;69573;45.560;10.200;2023-05-07T13:39:41;3.95;;;3.65;;
80270;SDS011;69573;45.560;10.200;2023-05-07T13:42:08;4.93;;;3.78;;
80270;SDS011;69573;45.560;10.200;2023-05-07T13:44:35;3.83;;;3.53;;
80270;SDS011;69573;45.560;10.200;2023-05-07T13:47:01;4.95;;;3.25;;
80270;SDS011;69573;45.560;10.200;2023-05-07T13:49:28;3.90;;;3.20;;
80270;SDS011;69573;45.560;10.200;2023-05-07T13:51:55;4.93;;;4.53;;
80270;SDS011;69573;45.560;10.200;2023-05-07T13:54:22;3.10;;;2.80;;
80270;SDS011;69573;45.560;10.200;2023-05-07T13:56:48;3.92;;;3.63;;
80270;SDS011;69573;45.560;10.200;2023-05-07T13:59:15;2.97;;;2.78;;
80270;SDS011;69573;45.560;10.200;2023-05-07T14:01:42;3.47;;;3.17;;
80270;SDS011;69573;45.560;10.200;2023-05-07T14:04:08;3.40;;;3.20;;
80270;SDS011;69573;45.560;10.200;2023-05-07T14:06:35;3.90;;;2.83;;
80270;SDS011;69573;45.560;10.200;2023-05-07T14:09:04;3.28;;;3.00;;
80270;SDS011;69573;45.560;10.200;2023-05-07T14:11:31;2.80;;;2.60;;
80270;SDS011;69573;45.560;10.200;2023-05-07T14:13:58;4.13;;;3.83;;
80270;SDS011;69573;45.560;10.200;2023-05-07T14:16:24;4.32;;;4.03;;
80270;SDS011;69573;45.560;10.200;2023-05-07T14:18:50;3.40;;;3.20;;
80270;SDS011;69573;45.560;10.200;2023-05-07T14:21:17;5.88;;;4.32;;
80270;SDS011;69573;45.560;10.200;2023-05-07T14:23:43;4.25;;;3.80;;
80270;SDS011;69573;45.560;10.200;2023-05-07T14:26:09;3.10;;;2.90;;
80270;SDS011;69573;45.560;10.200;2023-05-07T14:28:39;4.35;;;3.95;;
80270;SDS011;69573;45.560;10.200;2023-05-07T14:31:06;5.88;;;4.32;;
80270;SDS011;69573;45.560;10.200;2023-05-07T14:33:33;4.35;;;4.00;;
80270;SDS011;69573;45.560;10.200;2023-05-07T14:36:00;4.43;;;4.03;;
80270;SDS011;69573;45.560;10.200;2023-05-07T14:38:27;3.53;;;3.22;;
80270;SDS011;69573;45.560;10.200;2023-05-07T14:40:54;4.80;;;4.38;;
80270;SDS011;69573;45.560;10.200;2023-05-07T14:43:21;5.35;;;4.35;;
80270;SDS011;69573;45.560;10.200;2023-05-07T14:45:47;4.18;;;3.22;;
80270;SDS011;69573;45.560;10.200;2023-05-07T14:48:14;4.07;;;3.67;;
80270;SDS011;69573;45.560;10.200;2023-05-07T14:50:41;3.72;;;3.35;;
80270;SDS011;69573;45.560;10.200;2023-05-07T14:53:07;2.97;;;2.78;;
80270;SDS011;69573;45.560;10.200;2023-05-07T14:55:34;3.53;;;3.22;;
80270;SDS011;69573;45.560;10.200;2023-05-07T14:58:01;4.60;;;4.20;;
80270;SDS011;69573;45.560;10.200;2023-05-07T15:00:28;3.75;;;3.45;;
80270;SDS011;69573;45.560;10.200;2023-05-07T15:02:54;4.35;;;3.95;;
80270;SDS011;69573;45.560;10.200;2023-05-07T15:05:22;4.05;;;3.70;;